sensor_id;sensor_type;location;lat;lon;timestamp;pressure;altitude;pressure_sealevel;temperature;humidity
59043;BME280;44826;51.596;5.624;2023-04-06T00:00:33;101741.34;;;2.49;66.77
59043;BME280;44826;51.596;5.624;2023-04-06T00:02:58;101742.16;;;2.46;67.00
59043;BME280;44826;51.596;5.624;2023-04-06T00:05:23;101736.94;;;2.43;67.04
59043;BME280;44826;51.596;5.624;2023-04-06T00:07:49;101736.94;;;2.43;67.22
59043;BME280;44826;51.596;5.624;2023-04-06T00:10:16;101740.25;;;2.37;67.52
59043;BME280;44826;51.596;5.624;2023-04-06T00:12:42;101744.53;;;2.37;68.16
59043;BME280;44826;51.596;5.624;2023-04-06T00:15:07;101742.81;;;2.36;67.79
59043;BME280;44826;51.596;5.624;2023-04-06T00:17:34;101736.75;;;2.34;68.11
59043;BME280;44826;51.596;5.624;2023-04-06T00:20:00;101732.44;;;2.33;68.31
59043;BME280;44826;51.596;5.624;2023-04-06T00:22:25;101733.28;;;2.32;68.25
59043;BME280;44826;51.596;5.624;2023-04-06T00:24:50;101728.97;;;2.29;67.99
59043;BME280;44826;51.596;5.624;2023-04-06T00:27:16;101726.34;;;2.27;68.11
59043;BME280;44826;51.596;5.624;2023-04-06T00:29:41;101730.63;;;2.27;67.68
59043;BME280;44826;51.596;5.624;2023-04-06T00:32:06;101731.41;;;2.24;67.58
59043;BME280;44826;51.596;5.624;2023-04-06T00:34:32;101723.59;;;2.20;68.39
59043;BME280;44826;51.596;5.624;2023-04-06T00:36:57;101719.34;;;2.20;66.76
59043;BME280;44826;51.596;5.624;2023-04-06T00:39:22;101718.34;;;2.15;67.01
59043;BME280;44826;51.596;5.624;2023-04-06T00:41:51;101716.69;;;2.17;67.15
59043;BME280;44826;51.596;5.624;2023-04-06T00:44:16;101713.25;;;2.17;67.16
59043;BME280;44826;51.596;5.624;2023-04-06T00:46:42;101707.22;;;2.15;66.61
59043;BME280;44826;51.596;5.624;2023-04-06T00:49:07;101708.00;;;2.12;67.26
59043;BME280;44826;51.596;5.624;2023-04-06T00:51:32;101700.31;;;2.12;66.92
59043;BME280;44826;51.596;5.624;2023-04-06T00:53:58;101708.75;;;2.08;67.77
59043;BME280;44826;51.596;5.624;2023-04-06T00:56:23;101701.03;;;2.06;66.68
59043;BME280;44826;51.596;5.624;2023-04-06T00:58:49;101696.72;;;2.04;67.97
59043;BME280;44826;51.596;5.624;2023-04-06T01:01:14;101694.91;;;2.00;67.89
59043;BME280;44826;51.596;5.624;2023-04-06T01:03:40;101698.22;;;1.95;68.63
59043;BME280;44826;51.596;5.624;2023-04-06T01:06:07;101697.28;;;1.92;68.82
59043;BME280;44826;51.596;5.624;2023-04-06T01:08:32;101699.81;;;1.90;68.43
59043;BME280;44826;51.596;5.624;2023-04-06T01:10:59;101689.44;;;1.86;68.71
59043;BME280;44826;51.596;5.624;2023-04-06T01:13:26;101688.53;;;1.84;69.13
59043;BME280;44826;51.596;5.624;2023-04-06T01:15:51;101680.81;;;1.84;67.92
59043;BME280;44826;51.596;5.624;2023-04-06T01:18:17;101680.81;;;1.82;67.38
59043;BME280;44826;51.596;5.624;2023-04-06T01:20:42;101674.84;;;1.83;67.87
59043;BME280;44826;51.596;5.624;2023-04-06T01:23:07;101676.53;;;1.82;68.96
59043;BME280;44826;51.596;5.624;2023-04-06T01:25:32;101675.75;;;1.85;68.19
59043;BME280;44826;51.596;5.624;2023-04-06T01:27:58;101671.47;;;1.86;68.18
59043;BME280;44826;51.596;5.624;2023-04-06T01:30:23;101669.81;;;1.88;68.70
59043;BME280;44826;51.596;5.624;2023-04-06T01:32:48;101661.28;;;1.89;68.59
59043;BME280;44826;51.596;5.624;2023-04-06T01:35:14;101661.28;;;1.89;68.85
59043;BME280;44826;51.596;5.624;2023-04-06T01:37:39;101659.56;;;1.88;68.95
59043;BME280;44826;51.596;5.624;2023-04-06T01:40:05;101655.28;;;1.88;67.88
59043;BME280;44826;51.596;5.624;2023-04-06T01:42:31;101653.59;;;1.89;67.46
59043;BME280;44826;51.596;5.624;2023-04-06T01:44:56;101660.41;;;1.88;67.98
59043;BME280;44826;51.596;5.624;2023-04-06T01:47:21;101657.81;;;1.87;67.74
59043;BME280;44826;51.596;5.624;2023-04-06T01:49:47;101650.13;;;1.88;67.49
59043;BME280;44826;51.596;5.624;2023-04-06T01:52:12;101647.56;;;1.88;68.04
59043;BME280;44826;51.596;5.624;2023-04-06T01:54:37;101647.56;;;1.87;69.10
59043;BME280;44826;51.596;5.624;2023-04-06T01:57:03;101639.00;;;1.86;69.51
59043;BME280;44826;51.596;5.624;2023-04-06T01:59:28;101638.19;;;1.89;68.88
59043;BME280;44826;51.596;5.624;2023-04-06T02:01:53;101633.13;;;1.92;67.59
59043;BME280;44826;51.596;5.624;2023-04-06T02:04:18;101633.16;;;1.93;67.55
59043;BME280;44826;51.596;5.624;2023-04-06T02:06:44;101627.28;;;1.97;68.19
59043;BME280;44826;51.596;5.624;2023-04-06T02:09:09;101618.75;;;1.99;68.29
59043;BME280;44826;51.596;5.624;2023-04-06T02:11:35;101618.84;;;2.03;68.56
59043;BME280;44826;51.596;5.624;2023-04-06T02:14:00;101617.97;;;2.03;67.71
59043;BME280;44826;51.596;5.624;2023-04-06T02:16:26;101617.19;;;2.05;67.97
59043;BME280;44826;51.596;5.624;2023-04-06T02:18:51;101612.97;;;2.09;67.71
59043;BME280;44826;51.596;5.624;2023-04-06T02:21:16;101616.50;;;2.14;67.62
59043;BME280;44826;51.596;5.624;2023-04-06T02:23:48;101604.56;;;2.16;68.42
59043;BME280;44826;51.596;5.624;2023-04-06T02:26:15;101607.16;;;2.16;69.30
59043;BME280;44826;51.596;5.624;2023-04-06T02:28:40;101602.03;;;2.18;68.32
59043;BME280;44826;51.596;5.624;2023-04-06T02:31:05;101603.75;;;2.19;67.97
59043;BME280;44826;51.596;5.624;2023-04-06T02:33:31;101607.25;;;2.22;68.44
59043;BME280;44826;51.596;5.624;2023-04-06T02:35:56;101597.06;;;2.25;67.73
59043;BME280;44826;51.596;5.624;2023-04-06T02:38:21;101601.44;;;2.30;67.67
59043;BME280;44826;51.596;5.624;2023-04-06T02:40:47;101600.66;;;2.34;67.60
59043;BME280;44826;51.596;5.624;2023-04-06T02:43:12;101593.88;;;2.36;67.29
59043;BME280;44826;51.596;5.624;2023-04-06T02:45:37;101597.34;;;2.39;67.59
59043;BME280;44826;51.596;5.624;2023-04-06T02:48:03;101593.97;;;2.42;67.50
59043;BME280;44826;51.596;5.624;2023-04-06T02:50:28;101588.88;;;2.43;67.73
59043;BME280;44826;51.596;5.624;2023-04-06T02:52:53;101585.50;;;2.46;67.69
59043;BME280;44826;51.596;5.624;2023-04-06T02:55:18;101586.41;;;2.48;67.58
59043;BME280;44826;51.596;5.624;2023-04-06T02:57:44;101583.84;;;2.50;67.89
59043;BME280;44826;51.596;5.624;2023-04-06T03:00:10;101576.19;;;2.51;67.90
59043;BME280;44826;51.596;5.624;2023-04-06T03:02:36;101574.50;;;2.53;67.91
59043;BME280;44826;51.596;5.624;2023-04-06T03:05:01;101570.28;;;2.57;67.23
59043;BME280;44826;51.596;5.624;2023-04-06T03:07:28;101576.34;;;2.61;66.46
59043;BME280;44826;51.596;5.624;2023-04-06T03:09:53;101575.59;;;2.66;66.38
59043;BME280;44826;51.596;5.624;2023-04-06T03:12:18;101576.59;;;2.73;67.23
59043;BME280;44826;51.596;5.624;2023-04-06T03:14:44;101568.97;;;2.79;67.40
59043;BME280;44826;51.596;5.624;2023-04-06T03:17:09;101569.06;;;2.82;67.16
59043;BME280;44826;51.596;5.624;2023-04-06T03:19:35;101574.25;;;2.85;66.97
59043;BME280;44826;51.596;5.624;2023-04-06T03:22:00;101566.59;;;2.88;66.88
59043;BME280;44826;51.596;5.624;2023-04-06T03:24:26;101566.63;;;2.92;66.88
59043;BME280;44826;51.596;5.624;2023-04-06T03:26:51;101561.53;;;2.93;67.06
59043;BME280;44826;51.596;5.624;2023-04-06T03:29:16;101559.88;;;2.97;67.19
59043;BME280;44826;51.596;5.624;2023-04-06T03:31:41;101561.59;;;2.98;66.84
59043;BME280;44826;51.596;5.624;2023-04-06T03:34:07;101563.34;;;2.99;66.86
59043;BME280;44826;51.596;5.624;2023-04-06T03:36:34;101563.34;;;3.00;67.19
59043;BME280;44826;51.596;5.624;2023-04-06T03:38:59;101560.00;;;3.03;67.43
59043;BME280;44826;51.596;5.624;2023-04-06T03:41:25;101556.63;;;3.07;67.11
59043;BME280;44826;51.596;5.624;2023-04-06T03:43:50;101558.34;;;3.08;67.15
59043;BME280;44826;51.596;5.624;2023-04-06T03:46:15;101549.78;;;3.09;67.40
59043;BME280;44826;51.596;5.624;2023-04-06T03:48:40;101552.34;;;3.09;67.17
59043;BME280;44826;51.596;5.624;2023-04-06T03:51:06;101547.25;;;3.11;66.79
59043;BME280;44826;51.596;5.624;2023-04-06T03:53:31;101542.19;;;3.14;67.25
59043;BME280;44826;51.596;5.624;2023-04-06T03:55:56;101546.50;;;3.16;67.11
59043;BME280;44826;51.596;5.624;2023-04-06T03:58:22;101542.19;;;3.17;67.23
59043;BME280;44826;51.596;5.624;2023-04-06T04:00:47;101539.63;;;3.15;67.13
59043;BME280;44826;51.596;5.624;2023-04-06T04:03:15;101537.88;;;3.14;66.90
59043;BME280;44826;51.596;5.624;2023-04-06T04:05:42;101545.66;;;3.16;67.13
59043;BME280;44826;51.596;5.624;2023-04-06T04:08:08;101545.59;;;3.13;66.93
59043;BME280;44826;51.596;5.624;2023-04-06T04:10:33;101548.13;;;3.11;67.05
59043;BME280;44826;51.596;5.624;2023-04-06T04:12:58;101549.78;;;3.09;67.66
59043;BME280;44826;51.596;5.624;2023-04-06T04:15:24;101547.22;;;3.08;67.28
59043;BME280;44826;51.596;5.624;2023-04-06T04:17:49;101551.50;;;3.07;67.65
59043;BME280;44826;51.596;5.624;2023-04-06T04:20:15;101548.88;;;3.06;66.93
59043;BME280;44826;51.596;5.624;2023-04-06T04:22:41;101554.03;;;3.06;67.32
59043;BME280;44826;51.596;5.624;2023-04-06T04:25:07;101554.06;;;3.07;67.13
59043;BME280;44826;51.596;5.624;2023-04-06T04:27:32;101549.75;;;3.06;67.49
59043;BME280;44826;51.596;5.624;2023-04-06T04:29:58;101550.63;;;3.07;67.30
59043;BME280;44826;51.596;5.624;2023-04-06T04:32:23;101547.22;;;3.08;67.57
59043;BME280;44826;51.596;5.624;2023-04-06T04:34:52;101547.22;;;3.08;67.75
59043;BME280;44826;51.596;5.624;2023-04-06T04:37:17;101547.19;;;3.06;67.82
59043;BME280;44826;51.596;5.624;2023-04-06T04:39:43;101549.75;;;3.06;67.63
59043;BME280;44826;51.596;5.624;2023-04-06T04:42:08;101546.34;;;3.07;67.67
59043;BME280;44826;51.596;5.624;2023-04-06T04:44:33;101543.78;;;3.07;67.64
59043;BME280;44826;51.596;5.624;2023-04-06T04:46:59;101549.78;;;3.09;67.53
59043;BME280;44826;51.596;5.624;2023-04-06T04:49:24;101543.78;;;3.09;67.63
59043;BME280;44826;51.596;5.624;2023-04-06T04:51:49;101542.06;;;3.08;67.85
59043;BME280;44826;51.596;5.624;2023-04-06T04:54:17;101543.78;;;3.07;67.94
59043;BME280;44826;51.596;5.624;2023-04-06T04:56:42;101544.63;;;3.06;68.07
59043;BME280;44826;51.596;5.624;2023-04-06T04:59:08;101542.00;;;3.04;67.97
59043;BME280;44826;51.596;5.624;2023-04-06T05:01:33;101540.31;;;3.05;68.02
59043;BME280;44826;51.596;5.624;2023-04-06T05:03:58;101539.44;;;3.04;68.04
59043;BME280;44826;51.596;5.624;2023-04-06T05:06:23;101536.00;;;3.04;68.25
59043;BME280;44826;51.596;5.624;2023-04-06T05:08:49;101542.84;;;3.03;67.93
59043;BME280;44826;51.596;5.624;2023-04-06T05:11:14;101539.44;;;3.03;68.28
59043;BME280;44826;51.596;5.624;2023-04-06T05:13:39;101543.72;;;3.04;68.57
59043;BME280;44826;51.596;5.624;2023-04-06T05:16:05;101541.16;;;3.04;68.60
59043;BME280;44826;51.596;5.624;2023-04-06T05:18:30;101543.72;;;3.04;69.16
59043;BME280;44826;51.596;5.624;2023-04-06T05:20:56;101537.75;;;3.05;68.22
59043;BME280;44826;51.596;5.624;2023-04-06T05:23:21;101540.31;;;3.05;68.48
59043;BME280;44826;51.596;5.624;2023-04-06T05:25:46;101542.06;;;3.08;68.44
59043;BME280;44826;51.596;5.624;2023-04-06T05:28:12;101541.25;;;3.10;68.26
59043;BME280;44826;51.596;5.624;2023-04-06T05:30:39;101536.16;;;3.13;68.30
59043;BME280;44826;51.596;5.624;2023-04-06T05:33:04;101546.44;;;3.13;68.16
59043;BME280;44826;51.596;5.624;2023-04-06T05:35:30;101541.38;;;3.18;68.25
59043;BME280;44826;51.596;5.624;2023-04-06T05:37:55;101536.25;;;3.19;68.03
59043;BME280;44826;51.596;5.624;2023-04-06T05:40:20;101538.06;;;3.24;68.06
59043;BME280;44826;51.596;5.624;2023-04-06T05:42:46;101536.34;;;3.26;68.00
59043;BME280;44826;51.596;5.624;2023-04-06T05:45:12;101534.66;;;3.28;68.18
59043;BME280;44826;51.596;5.624;2023-04-06T05:47:42;101528.72;;;3.30;68.29
59043;BME280;44826;51.596;5.624;2023-04-06T05:50:08;101530.47;;;3.33;68.22
59043;BME280;44826;51.596;5.624;2023-04-06T05:52:33;101527.06;;;3.36;67.64
59043;BME280;44826;51.596;5.624;2023-04-06T05:54:59;101528.00;;;3.39;67.78
59043;BME280;44826;51.596;5.624;2023-04-06T05:57:24;101528.00;;;3.42;68.10
59043;BME280;44826;51.596;5.624;2023-04-06T05:59:49;101525.50;;;3.45;68.38
59043;BME280;44826;51.596;5.624;2023-04-06T06:02:15;101533.31;;;3.50;68.71
59043;BME280;44826;51.596;5.624;2023-04-06T06:04:40;101525.66;;;3.55;69.11
59043;BME280;44826;51.596;5.624;2023-04-06T06:07:05;101525.72;;;3.61;69.80
59043;BME280;44826;51.596;5.624;2023-04-06T06:09:30;101524.91;;;3.65;69.58
59043;BME280;44826;51.596;5.624;2023-04-06T06:11:56;101528.44;;;3.70;68.47
59043;BME280;44826;51.596;5.624;2023-04-06T06:14:21;101528.47;;;3.73;68.57
59043;BME280;44826;51.596;5.624;2023-04-06T06:16:47;101524.25;;;3.78;69.14
59043;BME280;44826;51.596;5.624;2023-04-06T06:19:12;101527.75;;;3.84;69.04
59043;BME280;44826;51.596;5.624;2023-04-06T06:21:37;101527.84;;;3.90;69.38
59043;BME280;44826;51.596;5.624;2023-04-06T06:24:03;101529.63;;;3.97;68.72
59043;BME280;44826;51.596;5.624;2023-04-06T06:26:28;101524.53;;;4.02;68.92
59043;BME280;44826;51.596;5.624;2023-04-06T06:28:53;101522.03;;;4.08;69.34
59043;BME280;44826;51.596;5.624;2023-04-06T06:31:19;101521.28;;;4.15;69.00
59043;BME280;44826;51.596;5.624;2023-04-06T06:33:48;101520.50;;;4.21;68.94
59043;BME280;44826;51.596;5.624;2023-04-06T06:36:19;101520.53;;;4.27;68.32
59043;BME280;44826;51.596;5.624;2023-04-06T06:38:44;101520.63;;;4.33;68.59
59043;BME280;44826;51.596;5.624;2023-04-06T06:41:10;101531.00;;;4.39;69.29
59043;BME280;44826;51.596;5.624;2023-04-06T06:43:35;101535.31;;;4.42;68.75
59043;BME280;44826;51.596;5.624;2023-04-06T06:46:01;101545.66;;;4.44;68.15
59043;BME280;44826;51.596;5.624;2023-04-06T06:48:26;101534.50;;;4.48;67.77
59043;BME280;44826;51.596;5.624;2023-04-06T06:50:51;101526.81;;;4.49;68.01
59043;BME280;44826;51.596;5.624;2023-04-06T06:53:17;101525.13;;;4.53;67.29
59043;BME280;44826;51.596;5.624;2023-04-06T06:55:42;101524.31;;;4.57;68.30
59043;BME280;44826;51.596;5.624;2023-04-06T06:58:09;101516.63;;;4.62;68.28
59043;BME280;44826;51.596;5.624;2023-04-06T07:00:34;101522.69;;;4.68;67.44
59043;BME280;44826;51.596;5.624;2023-04-06T07:03:00;101521.03;;;4.74;67.77
59043;BME280;44826;51.596;5.624;2023-04-06T07:05:25;101512.50;;;4.78;67.63
59043;BME280;44826;51.596;5.624;2023-04-06T07:07:51;101510.78;;;4.83;67.24
59043;BME280;44826;51.596;5.624;2023-04-06T07:10:17;101508.25;;;4.88;66.99
59043;BME280;44826;51.596;5.624;2023-04-06T07:12:42;101508.31;;;4.92;67.15
59043;BME280;44826;51.596;5.624;2023-04-06T07:15:07;101509.19;;;4.97;66.50
59043;BME280;44826;51.596;5.624;2023-04-06T07:17:33;101505.78;;;5.01;66.90
59043;BME280;44826;51.596;5.624;2023-04-06T07:19:58;101505.81;;;5.05;66.03
59043;BME280;44826;51.596;5.624;2023-04-06T07:22:23;101500.69;;;5.08;66.33
59043;BME280;44826;51.596;5.624;2023-04-06T07:24:49;101503.31;;;5.11;66.02
59043;BME280;44826;51.596;5.624;2023-04-06T07:27:14;101502.47;;;5.18;66.50
59043;BME280;44826;51.596;5.624;2023-04-06T07:29:41;101505.09;;;5.23;66.17
59043;BME280;44826;51.596;5.624;2023-04-06T07:32:07;101503.41;;;5.28;66.26
59043;BME280;44826;51.596;5.624;2023-04-06T07:34:33;101506.88;;;5.31;64.71
59043;BME280;44826;51.596;5.624;2023-04-06T07:36:58;101499.16;;;5.35;66.05
59043;BME280;44826;51.596;5.624;2023-04-06T07:39:25;101503.47;;;5.40;66.41
59043;BME280;44826;51.596;5.624;2023-04-06T07:41:52;101504.41;;;5.44;64.40
59043;BME280;44826;51.596;5.624;2023-04-06T07:44:17;101499.25;;;5.50;65.30
59043;BME280;44826;51.596;5.624;2023-04-06T07:46:42;101497.56;;;5.54;63.97
59043;BME280;44826;51.596;5.624;2023-04-06T07:49:07;101496.72;;;5.58;64.82
59043;BME280;44826;51.596;5.624;2023-04-06T07:51:35;101501.06;;;5.64;65.25
59043;BME280;44826;51.596;5.624;2023-04-06T07:54:01;101501.94;;;5.69;64.73
59043;BME280;44826;51.596;5.624;2023-04-06T07:56:26;101506.28;;;5.76;62.81
59043;BME280;44826;51.596;5.624;2023-04-06T07:58:51;101503.72;;;5.81;64.40
59043;BME280;44826;51.596;5.624;2023-04-06T08:01:17;101502.03;;;5.87;63.95
59043;BME280;44826;51.596;5.624;2023-04-06T08:03:42;101506.34;;;5.93;62.17
59043;BME280;44826;51.596;5.624;2023-04-06T08:06:07;101508.97;;;5.98;63.48
59043;BME280;44826;51.596;5.624;2023-04-06T08:08:33;101496.06;;;6.01;63.48
59043;BME280;44826;51.596;5.624;2023-04-06T08:10:58;101498.69;;;6.07;62.60
59043;BME280;44826;51.596;5.624;2023-04-06T08:13:23;101500.44;;;6.13;61.55
59043;BME280;44826;51.596;5.624;2023-04-06T08:15:49;101496.13;;;6.16;64.14
59043;BME280;44826;51.596;5.624;2023-04-06T08:18:14;101504.78;;;6.25;63.71
59043;BME280;44826;51.596;5.624;2023-04-06T08:20:40;101494.47;;;6.31;63.17
59043;BME280;44826;51.596;5.624;2023-04-06T08:23:05;101497.91;;;6.36;62.60
59043;BME280;44826;51.596;5.624;2023-04-06T08:25:33;101501.38;;;6.41;62.49
59043;BME280;44826;51.596;5.624;2023-04-06T08:27:58;101503.97;;;6.46;61.84
59043;BME280;44826;51.596;5.624;2023-04-06T08:30:24;101505.72;;;6.48;61.81
59043;BME280;44826;51.596;5.624;2023-04-06T08:32:49;101505.69;;;6.51;62.41
59043;BME280;44826;51.596;5.624;2023-04-06T08:35:15;101507.47;;;6.57;62.36
59043;BME280;44826;51.596;5.624;2023-04-06T08:37:40;101510.03;;;6.62;62.61
59043;BME280;44826;51.596;5.624;2023-04-06T08:40:06;101506.59;;;6.66;60.97
59043;BME280;44826;51.596;5.624;2023-04-06T08:42:32;101506.59;;;6.66;61.56
59043;BME280;44826;51.596;5.624;2023-04-06T08:44:59;101507.47;;;6.70;60.37
59043;BME280;44826;51.596;5.624;2023-04-06T08:47:24;101505.72;;;6.73;60.64
59043;BME280;44826;51.596;5.624;2023-04-06T08:49:50;101504.03;;;6.74;60.85
59043;BME280;44826;51.596;5.624;2023-04-06T08:52:18;101505.75;;;6.79;61.34
59043;BME280;44826;51.596;5.624;2023-04-06T08:54:44;101497.13;;;6.85;60.85
59043;BME280;44826;51.596;5.624;2023-04-06T08:57:09;101503.19;;;6.90;61.12
59043;BME280;44826;51.596;5.624;2023-04-06T08:59:35;101509.19;;;6.95;60.46
59043;BME280;44826;51.596;5.624;2023-04-06T09:02:03;101503.16;;;6.98;60.54
59043;BME280;44826;51.596;5.624;2023-04-06T09:04:30;101509.22;;;7.00;60.00
59043;BME280;44826;51.596;5.624;2023-04-06T09:06:56;101518.66;;;7.04;60.23
59043;BME280;44826;51.596;5.624;2023-04-06T09:09:22;101514.34;;;7.11;61.00
59043;BME280;44826;51.596;5.624;2023-04-06T09:11:51;101518.69;;;7.17;60.36
59043;BME280;44826;51.596;5.624;2023-04-06T09:14:17;101514.34;;;7.22;60.27
59043;BME280;44826;51.596;5.624;2023-04-06T09:16:44;101514.34;;;7.29;59.70
59043;BME280;44826;51.596;5.624;2023-04-06T09:19:11;101514.34;;;7.36;60.78
59043;BME280;44826;51.596;5.624;2023-04-06T09:21:37;101508.28;;;7.41;60.02
59043;BME280;44826;51.596;5.624;2023-04-06T09:24:03;101510.00;;;7.49;59.69
59043;BME280;44826;51.596;5.624;2023-04-06T09:26:29;101512.56;;;7.55;59.80
59043;BME280;44826;51.596;5.624;2023-04-06T09:28:58;101505.66;;;7.60;59.96
59043;BME280;44826;51.596;5.624;2023-04-06T09:31:32;101509.94;;;7.70;60.71
59043;BME280;44826;51.596;5.624;2023-04-06T09:33:59;101507.34;;;7.80;59.35
59043;BME280;44826;51.596;5.624;2023-04-06T09:36:33;101509.88;;;7.86;60.11
59043;BME280;44826;51.596;5.624;2023-04-06T09:39:01;101513.34;;;7.91;59.37
59043;BME280;44826;51.596;5.624;2023-04-06T09:41:28;101506.41;;;7.96;59.48
59043;BME280;44826;51.596;5.624;2023-04-06T09:44:11;101504.63;;;8.04;59.99
59043;BME280;44826;51.596;5.624;2023-04-06T09:46:41;101504.63;;;8.11;60.57
59043;BME280;44826;51.596;5.624;2023-04-06T09:49:07;101505.44;;;8.17;59.23
59043;BME280;44826;51.596;5.624;2023-04-06T09:51:41;101504.53;;;8.29;60.23
59043;BME280;44826;51.596;5.624;2023-04-06T09:54:11;101502.72;;;8.41;59.55
59043;BME280;44826;51.596;5.624;2023-04-06T09:56:46;101503.56;;;8.49;60.71
59043;BME280;44826;51.596;5.624;2023-04-06T10:00:12;101506.09;;;8.58;60.19
59043;BME280;44826;51.596;5.624;2023-04-06T10:02:08;101502.59;;;8.65;59.62
59043;BME280;44826;51.596;5.624;2023-04-06T10:04:54;101509.44;;;8.73;59.67
59043;BME280;44826;51.596;5.624;2023-04-06T10:07:21;101504.22;;;8.82;60.05
59043;BME280;44826;51.596;5.624;2023-04-06T10:09:47;101505.84;;;8.92;59.38
59043;BME280;44826;51.596;5.624;2023-04-06T10:12:13;101502.34;;;9.00;60.32
59043;BME280;44826;51.596;5.624;2023-04-06T10:14:38;101508.38;;;9.05;61.17
59043;BME280;44826;51.596;5.624;2023-04-06T10:17:04;101509.19;;;9.07;60.45
59043;BME280;44826;51.596;5.624;2023-04-06T10:20:05;101510.94;;;9.06;60.79
59043;BME280;44826;51.596;5.624;2023-04-06T10:22:55;101510.94;;;9.06;61.09
59043;BME280;44826;51.596;5.624;2023-04-06T10:25:32;101506.63;;;9.02;61.45
59043;BME280;44826;51.596;5.624;2023-04-06T10:28:02;101517.94;;;8.96;62.14
59043;BME280;44826;51.596;5.624;2023-04-06T10:30:29;101511.94;;;8.90;60.90
59043;BME280;44826;51.596;5.624;2023-04-06T10:32:55;101515.44;;;8.84;61.79
59043;BME280;44826;51.596;5.624;2023-04-06T10:35:21;101519.78;;;8.82;61.49
59043;BME280;44826;51.596;5.624;2023-04-06T10:37:49;101519.78;;;8.82;62.17
59043;BME280;44826;51.596;5.624;2023-04-06T10:40:25;101518.06;;;8.78;63.01
59043;BME280;44826;51.596;5.624;2023-04-06T10:42:54;101520.69;;;8.75;63.35
59043;BME280;44826;51.596;5.624;2023-04-06T10:45:30;101516.38;;;8.72;62.88
59043;BME280;44826;51.596;5.624;2023-04-06T10:47:56;101523.28;;;8.72;64.69
59043;BME280;44826;51.596;5.624;2023-04-06T10:50:22;101527.63;;;8.71;63.44
59043;BME280;44826;51.596;5.624;2023-04-06T10:52:59;101521.63;;;8.68;65.24
59043;BME280;44826;51.596;5.624;2023-04-06T10:55:25;101519.00;;;8.66;66.88
59043;BME280;44826;51.596;5.624;2023-04-06T10:57:51;101518.16;;;8.65;66.21
59043;BME280;44826;51.596;5.624;2023-04-06T11:00:17;101516.44;;;8.64;65.55
59043;BME280;44826;51.596;5.624;2023-04-06T11:02:44;101518.19;;;8.59;66.24
59043;BME280;44826;51.596;5.624;2023-04-06T11:05:11;101519.97;;;8.56;67.64
59043;BME280;44826;51.596;5.624;2023-04-06T11:07:37;101508.75;;;8.52;67.22
59043;BME280;44826;51.596;5.624;2023-04-06T11:10:02;101513.06;;;8.47;67.75
59043;BME280;44826;51.596;5.624;2023-04-06T11:12:28;101510.50;;;8.42;68.22
59043;BME280;44826;51.596;5.624;2023-04-06T11:14:58;101504.44;;;8.39;69.71
59043;BME280;44826;51.596;5.624;2023-04-06T11:17:35;101506.22;;;8.35;69.48
59043;BME280;44826;51.596;5.624;2023-04-06T11:20:01;101501.94;;;8.28;69.04
59043;BME280;44826;51.596;5.624;2023-04-06T11:22:27;101501.09;;;8.24;67.70
59043;BME280;44826;51.596;5.624;2023-04-06T11:24:53;101507.16;;;8.18;70.64
59043;BME280;44826;51.596;5.624;2023-04-06T11:27:19;101500.28;;;8.19;71.07
59043;BME280;44826;51.596;5.624;2023-04-06T11:29:45;101501.13;;;8.18;69.78
59043;BME280;44826;51.596;5.624;2023-04-06T11:32:11;101493.34;;;8.16;71.78
59043;BME280;44826;51.596;5.624;2023-04-06T11:34:46;101489.91;;;8.14;73.03
59043;BME280;44826;51.596;5.624;2023-04-06T11:37:13;101479.56;;;8.13;70.84
59043;BME280;44826;51.596;5.624;2023-04-06T11:39:40;101490.78;;;8.09;72.14
59043;BME280;44826;51.596;5.624;2023-04-06T11:42:06;101488.22;;;8.05;72.22
59043;BME280;44826;51.596;5.624;2023-04-06T11:44:39;101486.53;;;7.98;71.60
59043;BME280;44826;51.596;5.624;2023-04-06T11:47:07;101483.97;;;7.94;72.04
59043;BME280;44826;51.596;5.624;2023-04-06T11:49:38;101475.34;;;7.87;72.50
59043;BME280;44826;51.596;5.624;2023-04-06T11:52:23;101474.50;;;7.83;72.23
59043;BME280;44826;51.596;5.624;2023-04-06T11:54:50;101475.38;;;7.84;73.83
59043;BME280;44826;51.596;5.624;2023-04-06T11:57:17;101476.25;;;7.83;73.99
59043;BME280;44826;51.596;5.624;2023-04-06T11:59:43;101474.50;;;7.85;75.19
59043;BME280;44826;51.596;5.624;2023-04-06T12:02:09;101466.69;;;7.91;73.30
59043;BME280;44826;51.596;5.624;2023-04-06T12:04:34;101470.97;;;7.97;74.16
59043;BME280;44826;51.596;5.624;2023-04-06T12:07:00;101464.06;;;7.99;75.74
59043;BME280;44826;51.596;5.624;2023-04-06T12:09:26;101462.31;;;8.04;73.66
59043;BME280;44826;51.596;5.624;2023-04-06T12:11:51;101457.13;;;8.07;73.32
59043;BME280;44826;51.596;5.624;2023-04-06T12:14:16;101464.84;;;8.15;74.40
59043;BME280;44826;51.596;5.624;2023-04-06T12:16:42;101464.84;;;8.18;75.74
59043;BME280;44826;51.596;5.624;2023-04-06T12:19:07;101457.03;;;8.21;74.86
59043;BME280;44826;51.596;5.624;2023-04-06T12:21:34;101461.34;;;8.22;74.54
59043;BME280;44826;51.596;5.624;2023-04-06T12:24:01;101460.50;;;8.22;75.99
59043;BME280;44826;51.596;5.624;2023-04-06T12:26:27;101458.81;;;8.19;76.41
59043;BME280;44826;51.596;5.624;2023-04-06T12:28:52;101455.31;;;8.22;76.31
59043;BME280;44826;51.596;5.624;2023-04-06T12:31:20;101456.16;;;8.27;75.04
59043;BME280;44826;51.596;5.624;2023-04-06T12:33:46;101446.63;;;8.29;74.92
59043;BME280;44826;51.596;5.624;2023-04-06T12:36:13;101462.16;;;8.29;75.92
59043;BME280;44826;51.596;5.624;2023-04-06T12:38:39;101449.22;;;8.30;75.33
59043;BME280;44826;51.596;5.624;2023-04-06T12:41:06;101451.78;;;8.29;75.44
59043;BME280;44826;51.596;5.624;2023-04-06T12:43:31;101445.75;;;8.28;76.39
59043;BME280;44826;51.596;5.624;2023-04-06T12:45:56;101441.41;;;8.32;75.43
59043;BME280;44826;51.596;5.624;2023-04-06T12:48:21;101437.97;;;8.30;77.71
59043;BME280;44826;51.596;5.624;2023-04-06T12:50:54;101439.72;;;8.26;76.56
59043;BME280;44826;51.596;5.624;2023-04-06T12:53:20;101435.44;;;8.22;77.06
59043;BME280;44826;51.596;5.624;2023-04-06T12:55:45;101432.00;;;8.18;77.54